Domov               UVHVVR             MKGP            O straneh              
ZDRAVSTVENO VARSTVO RASTLIN
  MREŽA AGROMET. POSTAJ
 ► PROGNOSTIČNA OBVESTILA
AGROMETEOROLOŠKI PODATKI -
ARSO
OBVLADOVANJE TVEGANJ ZARADI
NEUGODNIH VREMENSKIH RAZMER
  ► NARAVNE NESREČE
  ► SUŠA/MOČA
  ► NAMAKANJE
  ► ŽLED (gozdarstvo)
KARTOGRAFSKI PRIKAZI
SPLETNE POVEZAVE
PROJEKTI IN PUBLIKACIJE

AGROMETEOROLOŠKA MREŽA: VREMENSKE POSTAJE IN FENOLOŠKA OPAZOVANJA

Pregled podatkov za lokacijo Drašiči, meteorološka postaja 38741

Pregled senzorjev na lokaciji

ID Ime Zadnja
vrednost
Datum
zadnje
spremembe
Tip
senzorja
1865 Temperatura 2 m ( °C) 13,06 °C 24.8.2017 04:30 50YA
1866 Relativna vlaga 2 m (% RH) 80,85 % RH 24.8.2017 04:30 50YA
1867 Omočenost lista (U) 1 U 24.8.2017 04:30 A730WET
1868 Padavine 0.2 mm (mm) 0 mm 24.8.2017 04:30 Rain-O-Matic

Pregled podatkov zadnjih 24 ur

Zap.
št.
Datum in čas Drašiči
Omočenost
lista
Padavine
0.2
mm
Relativna
vlaga
2
m
Temperatura
2
m
0 24.8.2017 03:30 1 0 80,85 13,06
1 24.8.2017 03:00 1 0 82,39 12,87
2 24.8.2017 02:30 3 0 85,4 12,65
3 24.8.2017 02:00 2 0 83,66 13,14
4 24.8.2017 01:30 2 0 82,37 13,82
5 24.8.2017 01:00 1 0 80,07 13,99
6 24.8.2017 00:30 0 0 73,02 14,95
7 24.8.2017 00:00 0 0 71,84 15,16
8 23.8.2017 23:30 0 0 68,96 15,9
9 23.8.2017 23:00 0 0 70,94 15,78
10 23.8.2017 22:30 0 0 68,91 16,17
11 23.8.2017 22:00 0 0 68,64 16,26
12 23.8.2017 21:30 0 0 67,84 16,65
13 23.8.2017 21:00 0 0 64,74 17,29
14 23.8.2017 20:30 0 0 64,49 17,58
15 23.8.2017 20:00 0 0 63,3 18,19
16 23.8.2017 19:30 0 0 60,07 19,12
17 23.8.2017 19:00 0 0 53,14 20,83
18 23.8.2017 18:30 0 0 45,91 22,78
19 23.8.2017 18:00 0 0 39,58 24,76
20 23.8.2017 17:30 0 0 35,68 25,84
21 23.8.2017 17:00 0 0 33,09 27,11
22 23.8.2017 16:30 0 0 31,36 27,89
23 23.8.2017 16:00 0 0 30,94 27,99
24 23.8.2017 15:30 0 0 31,58 27,67
25 23.8.2017 15:00 0 0 31,99 27,11
26 23.8.2017 14:30 0 0 31,84 27,06
27 23.8.2017 14:00 0 0 32,19 26,72
28 23.8.2017 13:30 0 0 32,11 26,62
29 23.8.2017 13:00 0 0 33,41 26,01
30 23.8.2017 12:30 0 0 34,46 24,91
31 23.8.2017 12:00 0 0 33,63 25,05
32 23.8.2017 11:30 0 0 36,09 24,66
33 23.8.2017 11:00 0 0 40 24,18
34 23.8.2017 10:30 0 0 45,25 22,93
35 23.8.2017 10:00 0 0 49,26 21,83
36 23.8.2017 09:30 0 0 51,45 20,76
37 23.8.2017 09:00 0 0 55,56 19,49
38 23.8.2017 08:30 0 0 62,49 18,07
39 23.8.2017 08:00 0 0 68,5 16,73
40 23.8.2017 07:30 0 0 63,64 16,97
41 23.8.2017 07:00 0 0 74,21 14,43
42 23.8.2017 06:30 1 0 83,96 11,58
43 23.8.2017 06:00 10 0 90,38 9,57
44 23.8.2017 05:30 10 0 89,82 9,35
© 2011 Ministrstvo za kmetijstvo, gozdarstvo in prehrano. Vse pravice pridržane.